Terminal Aerodrome Forecast
Issued by NWS Billings, MT

Home | Current Version | Previous Version | Text Only | Print | Product List | Glossary On
Versions: 1 2 3 4 5 6 7 8 9 10 11 12 13 14 15 16 17 18 19 20 21 22 23 24 25 26 27 28 29 30 31 32 33 34 35 36 37
000
FTUS45 KBYZ 261131
TAFSHR
TAF
KSHR 261131Z 2612/2712 VRB05KT P6SM VCSH FEW010 OVC025
     FM261400 VRB05KT 4SM -RA BR SCT004 OVC014
      TEMPO 2614/2616 1SM -RASN BR BKN004 OVC012
     FM261600 30008KT 2SM -RASN BR BKN004 OVC012
      TEMPO 2616/2620 1/2SM -RASN FZFG OVC004
     FM270200 31010KT 3/4SM -SN BR OVC002
     FM270700 VRB05KT 3SM BR BKN002 OVC012=

USA.gov is the U.S. government's official web portal to all federal, state and local government web resources and services.